VLG2MV LEPA-LEMG
Flight info
| Callsign | VLG2MV |
|---|---|
| Flight time | 1h 9m |
| Altitude | 35000 |
| Route | BAVER M603 ALT N851 UNTOS/N0459F360 N865 VIBAS |
| Aircraft | A320/M-SDE3FGHIRWY/LB1 |
Departure
| Time | 2026-05-06 17:20 |
|---|---|
| Airport | Palma de Mallorca Airport (LEPA) |
Arrival
| Time | 2026-05-06 18:29 |
|---|---|
| Airport | Málaga-Costa del Sol Airport (LEMG) |
| Time | Latitude | Longitude | Altitude | Speed | Heading |
|---|---|---|---|---|---|
| 2026-05-06 16:50 | 39.54472 | 2.73133 | 39 ft | 0 kts | 344° |
| 2026-05-06 17:09 | 39.54458 | 2.73138 | 37 ft | 4 kts | 350° |
| 2026-05-06 17:10 | 39.54436 | 2.73143 | 35 ft | 4 kts | 355° |
| 2026-05-06 17:10 | 39.54411 | 2.73138 | 35 ft | 4 kts | 38° |
| 2026-05-06 17:10 | 39.54397 | 2.73120 | 35 ft | 1 kts | 57° |
| 2026-05-06 17:10 | 39.54395 | 2.73116 | 35 ft | 0 kts | 57° |
| 2026-05-06 17:13 | 39.54397 | 2.73120 | 35 ft | 2 kts | 57° |
| 2026-05-06 17:13 | 39.54415 | 2.73194 | 38 ft | 10 kts | 102° |
| 2026-05-06 17:13 | 39.54350 | 2.73185 | 37 ft | 11 kts | 222° |
| 2026-05-06 17:14 | 39.54303 | 2.73099 | 38 ft | 12 kts | 238° |
| 2026-05-06 17:14 | 39.54249 | 2.73047 | 38 ft | 9 kts | 170° |
| 2026-05-06 17:14 | 39.54237 | 2.73056 | 38 ft | 0 kts | 149° |
| 2026-05-06 17:15 | 39.54227 | 2.73070 | 37 ft | 4 kts | 123° |
| 2026-05-06 17:15 | 39.54212 | 2.73138 | 38 ft | 9 kts | 96° |
| 2026-05-06 17:15 | 39.54212 | 2.73224 | 38 ft | 11 kts | 91° |
| 2026-05-06 17:15 | 39.54219 | 2.73352 | 37 ft | 16 kts | 71° |
| 2026-05-06 17:16 | 39.54245 | 2.73420 | 38 ft | 0 kts | 57° |
| 2026-05-06 17:19 | 39.54265 | 2.73461 | 38 ft | 28 kts | 58° |
| 2026-05-06 17:19 | 39.54531 | 2.74016 | 38 ft | 114 kts | 58° |
| 2026-05-06 17:19 | 39.55066 | 2.75158 | 62 ft | 176 kts | 58° |
| 2026-05-06 17:20 | 39.55692 | 2.76481 | 1024 ft | 168 kts | 59° |
| 2026-05-06 17:20 | 39.56281 | 2.77770 | 1974 ft | 164 kts | 59° |
| 2026-05-06 17:20 | 39.56840 | 2.79031 | 2794 ft | 162 kts | 58° |
| 2026-05-06 17:20 | 39.57443 | 2.80362 | 3314 ft | 183 kts | 58° |
| 2026-05-06 17:21 | 39.58129 | 2.81875 | 3742 ft | 215 kts | 58° |
| 2026-05-06 17:21 | 39.58930 | 2.83665 | 4280 ft | 242 kts | 58° |
| 2026-05-06 17:21 | 39.59805 | 2.85608 | 5188 ft | 251 kts | 58° |
| 2026-05-06 17:21 | 39.60698 | 2.87552 | 5814 ft | 250 kts | 58° |
| 2026-05-06 17:22 | 39.61653 | 2.89409 | 5973 ft | 245 kts | 43° |
| 2026-05-06 17:22 | 39.63080 | 2.90507 | 6052 ft | 238 kts | 9° |
| 2026-05-06 17:22 | 39.64693 | 2.90471 | 6160 ft | 234 kts | 337° |
| 2026-05-06 17:22 | 39.66102 | 2.89372 | 6538 ft | 243 kts | 310° |
| 2026-05-06 17:23 | 39.66963 | 2.87498 | 7111 ft | 244 kts | 283° |
| 2026-05-06 17:23 | 39.67045 | 2.85310 | 7598 ft | 256 kts | 255° |
| 2026-05-06 17:23 | 39.66365 | 2.83127 | 8208 ft | 265 kts | 245° |
| 2026-05-06 17:23 | 39.65586 | 2.80942 | 9020 ft | 269 kts | 245° |
| 2026-05-06 17:24 | 39.64798 | 2.78723 | 9846 ft | 271 kts | 245° |
| 2026-05-06 17:24 | 39.63999 | 2.76466 | 10391 ft | 284 kts | 245° |
| 2026-05-06 17:24 | 39.63145 | 2.74041 | 10598 ft | 307 kts | 245° |
| 2026-05-06 17:24 | 39.62224 | 2.71421 | 10753 ft | 331 kts | 245° |
| 2026-05-06 17:25 | 39.61238 | 2.68617 | 10892 ft | 352 kts | 245° |
| 2026-05-06 17:25 | 39.60206 | 2.65686 | 11050 ft | 370 kts | 245° |
| 2026-05-06 17:25 | 39.59127 | 2.62623 | 11551 ft | 376 kts | 245° |
| 2026-05-06 17:25 | 39.58033 | 2.59528 | 12178 ft | 379 kts | 245° |
| 2026-05-06 17:26 | 39.56933 | 2.56414 | 12811 ft | 381 kts | 245° |
| 2026-05-06 17:26 | 39.55828 | 2.53282 | 13494 ft | 383 kts | 245° |
| 2026-05-06 17:26 | 39.54717 | 2.50133 | 14099 ft | 385 kts | 245° |
| 2026-05-06 17:26 | 39.53600 | 2.46974 | 14641 ft | 387 kts | 245° |
| 2026-05-06 17:27 | 39.52472 | 2.43798 | 15198 ft | 389 kts | 245° |
| 2026-05-06 17:27 | 39.51338 | 2.40609 | 15731 ft | 391 kts | 245° |
| 2026-05-06 17:27 | 39.50198 | 2.37404 | 16250 ft | 392 kts | 245° |
| 2026-05-06 17:27 | 39.49071 | 2.34235 | 16742 ft | 394 kts | 245° |
| 2026-05-06 17:28 | 39.47921 | 2.30999 | 17229 ft | 396 kts | 245° |
| 2026-05-06 17:28 | 39.46765 | 2.27755 | 17700 ft | 398 kts | 245° |
| 2026-05-06 17:28 | 39.45602 | 2.24491 | 18172 ft | 400 kts | 245° |
| 2026-05-06 17:28 | 39.44431 | 2.21220 | 18575 ft | 401 kts | 245° |
| 2026-05-06 17:29 | 39.43255 | 2.17943 | 18950 ft | 403 kts | 245° |
| 2026-05-06 17:29 | 39.42069 | 2.14646 | 19321 ft | 405 kts | 245° |
| 2026-05-06 17:29 | 39.40880 | 2.11342 | 19682 ft | 406 kts | 245° |
| 2026-05-06 17:29 | 39.39688 | 2.08022 | 20029 ft | 408 kts | 245° |
| 2026-05-06 17:30 | 39.38493 | 2.04692 | 20362 ft | 409 kts | 245° |
| 2026-05-06 17:30 | 39.37308 | 2.01399 | 20691 ft | 411 kts | 245° |
| 2026-05-06 17:30 | 39.36101 | 1.98045 | 21003 ft | 412 kts | 245° |
| 2026-05-06 17:30 | 39.34889 | 1.94682 | 21309 ft | 414 kts | 245° |
| 2026-05-06 17:31 | 39.33671 | 1.91308 | 21601 ft | 415 kts | 245° |
| 2026-05-06 17:31 | 39.32447 | 1.87924 | 21896 ft | 417 kts | 245° |
| 2026-05-06 17:31 | 39.31219 | 1.84525 | 22194 ft | 418 kts | 245° |
| 2026-05-06 17:31 | 39.29986 | 1.81118 | 22469 ft | 420 kts | 245° |
| 2026-05-06 17:32 | 39.28748 | 1.77701 | 22728 ft | 421 kts | 245° |
| 2026-05-06 17:32 | 39.27504 | 1.74274 | 22983 ft | 422 kts | 245° |
| 2026-05-06 17:32 | 39.26256 | 1.70839 | 23236 ft | 424 kts | 245° |
| 2026-05-06 17:32 | 39.25001 | 1.67392 | 23473 ft | 425 kts | 245° |
| 2026-05-06 17:33 | 39.23739 | 1.63936 | 23670 ft | 426 kts | 245° |
| 2026-05-06 17:33 | 39.22493 | 1.60524 | 23862 ft | 427 kts | 245° |
| 2026-05-06 17:33 | 39.21232 | 1.57070 | 24137 ft | 425 kts | 245° |
| 2026-05-06 17:33 | 39.19972 | 1.53629 | 24425 ft | 423 kts | 245° |
| 2026-05-06 17:34 | 39.18717 | 1.50210 | 24719 ft | 422 kts | 245° |
| 2026-05-06 17:34 | 39.17465 | 1.46801 | 25015 ft | 420 kts | 245° |
| 2026-05-06 17:34 | 39.16218 | 1.43404 | 25328 ft | 418 kts | 245° |
| 2026-05-06 17:34 | 39.14976 | 1.40025 | 25627 ft | 417 kts | 245° |
| 2026-05-06 17:35 | 39.13735 | 1.36651 | 25939 ft | 415 kts | 245° |
| 2026-05-06 17:35 | 39.12499 | 1.33297 | 26262 ft | 414 kts | 245° |
| 2026-05-06 17:35 | 39.11284 | 1.30002 | 26587 ft | 412 kts | 245° |
| 2026-05-06 17:36 | 39.08832 | 1.23367 | 27262 ft | 409 kts | 245° |
| 2026-05-06 17:36 | 39.07610 | 1.20071 | 27602 ft | 407 kts | 245° |
| 2026-05-06 17:36 | 39.06394 | 1.16796 | 27948 ft | 405 kts | 245° |
| 2026-05-06 17:36 | 39.05178 | 1.13527 | 28299 ft | 404 kts | 245° |
| 2026-05-06 17:37 | 39.03971 | 1.10276 | 28648 ft | 402 kts | 245° |
| 2026-05-06 17:37 | 39.02769 | 1.07034 | 28999 ft | 401 kts | 245° |
| 2026-05-06 17:37 | 39.01574 | 1.03809 | 29354 ft | 399 kts | 245° |
| 2026-05-06 17:37 | 39.00381 | 1.00596 | 29715 ft | 397 kts | 245° |
| 2026-05-06 17:38 | 38.99190 | 0.97396 | 30058 ft | 396 kts | 244° |
| 2026-05-06 17:38 | 38.98016 | 0.94256 | 30356 ft | 394 kts | 244° |
| 2026-05-06 17:38 | 38.96828 | 0.91086 | 30639 ft | 394 kts | 244° |
| 2026-05-06 17:38 | 38.95643 | 0.87924 | 30925 ft | 393 kts | 244° |
| 2026-05-06 17:39 | 38.94460 | 0.84767 | 31209 ft | 392 kts | 244° |
| 2026-05-06 17:39 | 38.93278 | 0.81617 | 31491 ft | 391 kts | 244° |
| 2026-05-06 17:39 | 38.92101 | 0.78478 | 31793 ft | 390 kts | 244° |
| 2026-05-06 17:39 | 38.90929 | 0.75349 | 32082 ft | 388 kts | 244° |
| 2026-05-06 17:40 | 38.89757 | 0.72230 | 32369 ft | 387 kts | 244° |
| 2026-05-06 17:40 | 38.88587 | 0.69122 | 32659 ft | 386 kts | 244° |
| 2026-05-06 17:40 | 38.87820 | 0.67061 | 32854 ft | 386 kts | 245° |
| 2026-05-06 17:40 | 38.86741 | 0.63914 | 33143 ft | 385 kts | 247° |
| 2026-05-06 17:41 | 38.85425 | 0.59700 | 33518 ft | 384 kts | 249° |
| 2026-05-06 17:41 | 38.84467 | 0.56510 | 33808 ft | 383 kts | 249° |
| 2026-05-06 17:41 | 38.83514 | 0.53329 | 34065 ft | 382 kts | 249° |
| 2026-05-06 17:41 | 38.82551 | 0.50161 | 34293 ft | 382 kts | 248° |
| 2026-05-06 17:42 | 38.81799 | 0.48072 | 34437 ft | 382 kts | 242° |
| 2026-05-06 17:42 | 38.80401 | 0.45231 | 34633 ft | 383 kts | 238° |
| 2026-05-06 17:42 | 38.78923 | 0.42386 | 34825 ft | 383 kts | 238° |
| 2026-05-06 17:42 | 38.77444 | 0.39539 | 34914 ft | 386 kts | 238° |
| 2026-05-06 17:43 | 38.74446 | 0.33753 | 34931 ft | 392 kts | 238° |
| 2026-05-06 17:43 | 38.71430 | 0.27916 | 34918 ft | 394 kts | 238° |
| 2026-05-06 17:44 | 38.68395 | 0.22037 | 34931 ft | 399 kts | 238° |
| 2026-05-06 17:44 | 38.65303 | 0.16094 | 34929 ft | 403 kts | 238° |
| 2026-05-06 17:45 | 38.62174 | 0.10098 | 34928 ft | 407 kts | 238° |
| 2026-05-06 17:45 | 38.59051 | 0.04117 | 34928 ft | 407 kts | 238° |
| 2026-05-06 17:46 | 38.55904 | -0.01899 | 34965 ft | 407 kts | 237° |
| 2026-05-06 17:46 | 38.52750 | -0.07917 | 34947 ft | 408 kts | 237° |
| 2026-05-06 17:47 | 38.49589 | -0.13944 | 34940 ft | 408 kts | 237° |
| 2026-05-06 17:47 | 38.46459 | -0.19900 | 34937 ft | 409 kts | 237° |
| 2026-05-06 17:48 | 38.43271 | -0.25940 | 34943 ft | 409 kts | 237° |
| 2026-05-06 17:48 | 38.40097 | -0.31952 | 34942 ft | 409 kts | 237° |
| 2026-05-06 17:49 | 38.36923 | -0.37958 | 34948 ft | 409 kts | 237° |
| 2026-05-06 17:49 | 38.33747 | -0.43959 | 34948 ft | 408 kts | 237° |
| 2026-05-06 17:50 | 38.30587 | -0.49918 | 34949 ft | 408 kts | 237° |
| 2026-05-06 17:50 | 38.27409 | -0.55914 | 34955 ft | 408 kts | 238° |
| 2026-05-06 17:51 | 38.24900 | -0.62374 | 34951 ft | 408 kts | 245° |
| 2026-05-06 17:51 | 38.22537 | -0.68932 | 34953 ft | 408 kts | 245° |
| 2026-05-06 17:52 | 38.20163 | -0.75490 | 34946 ft | 408 kts | 245° |
| 2026-05-06 17:52 | 38.17808 | -0.82001 | 34945 ft | 408 kts | 245° |
| 2026-05-06 17:53 | 38.15436 | -0.88550 | 34939 ft | 408 kts | 245° |
| 2026-05-06 17:53 | 38.13056 | -0.95091 | 34935 ft | 408 kts | 245° |
| 2026-05-06 17:54 | 38.10672 | -1.01632 | 34935 ft | 408 kts | 245° |
| 2026-05-06 17:54 | 38.08287 | -1.08174 | 34937 ft | 408 kts | 245° |
| 2026-05-06 17:55 | 38.05905 | -1.14700 | 34932 ft | 408 kts | 245° |
| 2026-05-06 17:55 | 38.03531 | -1.21178 | 34934 ft | 408 kts | 245° |
| 2026-05-06 17:56 | 38.01135 | -1.27695 | 34932 ft | 408 kts | 245° |
| 2026-05-06 17:56 | 37.98728 | -1.34200 | 34933 ft | 408 kts | 244° |
| 2026-05-06 17:57 | 37.96316 | -1.40701 | 34932 ft | 408 kts | 245° |
| 2026-05-06 17:57 | 37.93909 | -1.47205 | 34930 ft | 408 kts | 245° |
| 2026-05-06 17:58 | 37.91518 | -1.53662 | 34931 ft | 408 kts | 245° |
| 2026-05-06 17:58 | 37.89107 | -1.60162 | 34923 ft | 408 kts | 244° |
| 2026-05-06 17:59 | 37.86692 | -1.66654 | 34925 ft | 408 kts | 244° |
| 2026-05-06 17:59 | 37.84271 | -1.73136 | 34929 ft | 407 kts | 244° |
| 2026-05-06 18:00 | 37.81854 | -1.79618 | 34928 ft | 407 kts | 244° |
| 2026-05-06 18:00 | 37.79427 | -1.86096 | 34932 ft | 408 kts | 244° |
| 2026-05-06 18:01 | 37.77012 | -1.92529 | 34936 ft | 408 kts | 244° |
| 2026-05-06 18:01 | 37.74570 | -1.98999 | 34935 ft | 408 kts | 244° |
| 2026-05-06 18:02 | 37.72124 | -2.05476 | 34938 ft | 409 kts | 244° |
| 2026-05-06 18:02 | 37.69678 | -2.11959 | 34938 ft | 409 kts | 244° |
| 2026-05-06 18:03 | 37.67247 | -2.18386 | 34942 ft | 408 kts | 244° |
| 2026-05-06 18:03 | 37.64789 | -2.24846 | 34931 ft | 408 kts | 243° |
| 2026-05-06 18:04 | 37.62330 | -2.31303 | 34928 ft | 408 kts | 243° |
| 2026-05-06 18:04 | 37.59875 | -2.37746 | 34929 ft | 408 kts | 243° |
| 2026-05-06 18:05 | 37.57441 | -2.44145 | 34924 ft | 407 kts | 243° |
| 2026-05-06 18:05 | 37.54984 | -2.50579 | 34925 ft | 407 kts | 243° |
| 2026-05-06 18:06 | 37.52517 | -2.57007 | 34920 ft | 408 kts | 243° |
| 2026-05-06 18:06 | 37.50044 | -2.63427 | 34918 ft | 408 kts | 243° |
| 2026-05-06 18:07 | 37.47572 | -2.69850 | 34914 ft | 408 kts | 243° |
| 2026-05-06 18:07 | 37.45118 | -2.76225 | 34907 ft | 407 kts | 243° |
| 2026-05-06 18:08 | 37.42636 | -2.82633 | 34902 ft | 407 kts | 243° |
| 2026-05-06 18:08 | 37.40224 | -2.89079 | 34899 ft | 409 kts | 250° |
| 2026-05-06 18:09 | 37.39687 | -2.92596 | 34895 ft | 414 kts | 264° |
| 2026-05-06 18:09 | 37.39638 | -2.96222 | 34895 ft | 415 kts | 265° |
| 2026-05-06 18:09 | 37.39609 | -3.03493 | 34899 ft | 416 kts | 265° |
| 2026-05-06 18:10 | 37.39594 | -3.10761 | 34898 ft | 416 kts | 265° |
| 2026-05-06 18:10 | 37.39564 | -3.17983 | 34894 ft | 415 kts | 265° |
| 2026-05-06 18:11 | 37.39524 | -3.25237 | 34895 ft | 415 kts | 265° |
| 2026-05-06 18:11 | 37.39475 | -3.32488 | 34890 ft | 414 kts | 265° |
| 2026-05-06 18:12 | 37.39422 | -3.39730 | 34896 ft | 415 kts | 265° |
| 2026-05-06 18:12 | 37.39368 | -3.46911 | 34822 ft | 406 kts | 265° |
| 2026-05-06 18:13 | 37.39345 | -3.50441 | 34015 ft | 404 kts | 264° |
| 2026-05-06 18:13 | 37.39316 | -3.53979 | 32982 ft | 405 kts | 264° |
| 2026-05-06 18:13 | 37.39281 | -3.57538 | 31871 ft | 408 kts | 265° |
| 2026-05-06 18:13 | 37.39122 | -3.61097 | 30745 ft | 408 kts | 258° |
| 2026-05-06 18:14 | 37.38536 | -3.64591 | 29565 ft | 409 kts | 251° |
| 2026-05-06 18:14 | 37.37529 | -3.67947 | 28130 ft | 413 kts | 245° |
| 2026-05-06 18:14 | 37.36350 | -3.71276 | 26836 ft | 419 kts | 245° |
| 2026-05-06 18:14 | 37.35166 | -3.74630 | 26242 ft | 423 kts | 245° |
| 2026-05-06 18:15 | 37.33987 | -3.77982 | 25470 ft | 427 kts | 245° |
| 2026-05-06 18:15 | 37.32778 | -3.81412 | 24698 ft | 432 kts | 245° |
| 2026-05-06 18:15 | 37.31554 | -3.84877 | 23915 ft | 434 kts | 245° |
| 2026-05-06 18:15 | 37.30329 | -3.88347 | 23062 ft | 433 kts | 245° |
| 2026-05-06 18:16 | 37.29111 | -3.91799 | 22249 ft | 432 kts | 245° |
| 2026-05-06 18:16 | 37.27898 | -3.95232 | 21477 ft | 429 kts | 245° |
| 2026-05-06 18:16 | 37.26688 | -3.98645 | 20702 ft | 426 kts | 245° |
| 2026-05-06 18:16 | 37.25481 | -4.02035 | 19932 ft | 424 kts | 245° |
| 2026-05-06 18:17 | 37.24279 | -4.05404 | 19169 ft | 422 kts | 245° |
| 2026-05-06 18:17 | 37.23082 | -4.08759 | 18403 ft | 420 kts | 245° |
| 2026-05-06 18:17 | 37.21919 | -4.12061 | 17584 ft | 418 kts | 248° |
| 2026-05-06 18:17 | 37.21074 | -4.15539 | 17043 ft | 417 kts | 257° |
| 2026-05-06 18:18 | 37.20700 | -4.19148 | 16845 ft | 418 kts | 266° |
| 2026-05-06 18:18 | 37.20628 | -4.22787 | 16043 ft | 418 kts | 267° |
| 2026-05-06 18:18 | 37.20578 | -4.26425 | 15207 ft | 417 kts | 268° |
| 2026-05-06 18:18 | 37.20538 | -4.30054 | 14437 ft | 415 kts | 268° |
| 2026-05-06 18:19 | 37.20498 | -4.33658 | 13714 ft | 412 kts | 268° |
| 2026-05-06 18:19 | 37.20454 | -4.37239 | 12931 ft | 410 kts | 268° |
| 2026-05-06 18:19 | 37.20251 | -4.40780 | 12232 ft | 404 kts | 257° |
| 2026-05-06 18:19 | 37.19378 | -4.44024 | 11669 ft | 395 kts | 242° |
| 2026-05-06 18:20 | 37.17830 | -4.46806 | 11283 ft | 382 kts | 227° |
| 2026-05-06 18:20 | 37.16065 | -4.49186 | 11154 ft | 364 kts | 226° |
| 2026-05-06 18:20 | 37.14383 | -4.51463 | 11031 ft | 348 kts | 227° |
| 2026-05-06 18:20 | 37.12775 | -4.53640 | 10901 ft | 333 kts | 227° |
| 2026-05-06 18:21 | 37.11231 | -4.55730 | 10779 ft | 320 kts | 227° |
| 2026-05-06 18:21 | 37.09745 | -4.57735 | 10649 ft | 308 kts | 226° |
| 2026-05-06 18:21 | 37.08313 | -4.59663 | 10536 ft | 297 kts | 225° |
| 2026-05-06 18:21 | 37.06717 | -4.61208 | 10184 ft | 289 kts | 206° |
| 2026-05-06 18:22 | 37.04852 | -4.61995 | 9712 ft | 287 kts | 195° |
| 2026-05-06 18:22 | 37.02923 | -4.62621 | 9162 ft | 286 kts | 195° |
| 2026-05-06 18:22 | 37.01005 | -4.63242 | 8626 ft | 284 kts | 195° |
| 2026-05-06 18:22 | 36.99099 | -4.63858 | 8106 ft | 282 kts | 194° |
| 2026-05-06 18:23 | 36.97203 | -4.64469 | 7593 ft | 281 kts | 194° |
| 2026-05-06 18:23 | 36.95296 | -4.64969 | 6928 ft | 281 kts | 183° |
| 2026-05-06 18:23 | 36.93344 | -4.64949 | 6268 ft | 279 kts | 179° |
| 2026-05-06 18:23 | 36.91439 | -4.64890 | 5815 ft | 269 kts | 178° |
| 2026-05-06 18:24 | 36.89611 | -4.64830 | 5438 ft | 263 kts | 178° |
| 2026-05-06 18:24 | 36.87807 | -4.64773 | 5074 ft | 256 kts | 178° |
| 2026-05-06 18:24 | 36.86045 | -4.64719 | 4722 ft | 250 kts | 178° |
| 2026-05-06 18:24 | 36.84327 | -4.64668 | 4361 ft | 244 kts | 178° |
| 2026-05-06 18:25 | 36.82647 | -4.64617 | 4036 ft | 239 kts | 178° |
| 2026-05-06 18:25 | 36.81002 | -4.64567 | 3706 ft | 235 kts | 178° |
| 2026-05-06 18:25 | 36.79384 | -4.64516 | 3382 ft | 230 kts | 178° |
| 2026-05-06 18:25 | 36.77814 | -4.64464 | 3060 ft | 221 kts | 178° |
| 2026-05-06 18:26 | 36.76315 | -4.64416 | 2755 ft | 211 kts | 177° |
| 2026-05-06 18:26 | 36.74978 | -4.63969 | 2523 ft | 196 kts | 146° |
| 2026-05-06 18:26 | 36.74133 | -4.62785 | 2428 ft | 174 kts | 120° |
| 2026-05-06 18:26 | 36.73590 | -4.61487 | 2060 ft | 164 kts | 120° |
| 2026-05-06 18:27 | 36.73084 | -4.60271 | 1781 ft | 152 kts | 119° |
| 2026-05-06 18:27 | 36.72612 | -4.59141 | 1564 ft | 143 kts | 120° |
| 2026-05-06 18:27 | 36.72161 | -4.58061 | 1356 ft | 138 kts | 119° |
| 2026-05-06 18:27 | 36.71724 | -4.57020 | 1192 ft | 139 kts | 117° |
| 2026-05-06 18:28 | 36.71272 | -4.55943 | 996 ft | 138 kts | 118° |
| 2026-05-06 18:28 | 36.70833 | -4.54899 | 823 ft | 136 kts | 117° |
| 2026-05-06 18:28 | 36.70386 | -4.53868 | 656 ft | 135 kts | 117° |
| 2026-05-06 18:28 | 36.69947 | -4.52831 | 517 ft | 135 kts | 116° |
| 2026-05-06 18:29 | 36.69527 | -4.51792 | 261 ft | 133 kts | 117° |
| 2026-05-06 18:29 | 36.69101 | -4.50777 | 65 ft | 130 kts | 114° |
| 2026-05-06 18:29 | 36.68754 | -4.49938 | 50 ft | 72 kts | 118° |
| 2026-05-06 18:29 | 36.68593 | -4.49563 | 50 ft | 35 kts | 122° |
| 2026-05-06 18:30 | 36.68448 | -4.49363 | 50 ft | 23 kts | 144° |
| 2026-05-06 18:30 | 36.68340 | -4.49291 | 48 ft | 12 kts | 169° |
| 2026-05-06 18:30 | 36.68227 | -4.49383 | 48 ft | 36 kts | 219° |
| 2026-05-06 18:30 | 36.68087 | -4.49535 | 48 ft | 24 kts | 224° |
| 2026-05-06 18:31 | 36.67977 | -4.49498 | 47 ft | 18 kts | 130° |
| 2026-05-06 18:31 | 36.67897 | -4.49395 | 47 ft | 10 kts | 158° |
| 2026-05-06 18:31 | 36.67844 | -4.49418 | 44 ft | 0 kts | 215° |